Time;durP1;ratioP1;P1;durP2;ratioP2;P2;SDS_P1;SDS_P2;PMS_P1;PMS_P2;Temp;Humidity;BMP_temperature;BMP_pressure;BME280_temperature;BME280_humidity;BME280_pressure;Samples;Min_cycle;Max_cycle;Signal;HPM_P1;HPM_P2
2024/01/19 00:02:10;;;;;;;1999.90;999.90;;;-0.90;99.90;;;;;;5072066;28;20167;-71
2024/01/19 00:04:35;;;;;;;1999.90;999.90;;;-0.90;99.90;;;;;;5071690;28;20167;-71
2024/01/19 00:07:01;;;;;;;1999.90;999.90;;;-1.00;99.90;;;;;;5071869;28;20300;-70
2024/01/19 00:09:27;;;;;;;1999.90;999.90;;;-1.00;99.90;;;;;;5071616;28;20560;-68
2024/01/19 00:11:52;;;;;;;1999.90;999.90;;;-1.00;99.90;;;;;;5071704;28;20277;-73
2024/01/19 00:14:18;;;;;;;1999.90;999.90;;;-0.90;99.90;;;;;;5071737;28;20171;-70
2024/01/19 00:16:43;;;;;;;1999.90;999.90;;;-1.00;99.90;;;;;;5071192;28;20250;-70
2024/01/19 00:19:09;;;;;;;1999.90;999.90;;;-1.00;99.90;;;;;;5071642;28;20187;-70
2024/01/19 00:21:44;;;;;;;1999.90;999.90;;;-1.00;99.90;;;;;;5071366;28;20665;-70
2024/01/19 00:24:11;;;;;;;1999.90;999.90;;;-1.10;99.90;;;;;;5071630;28;20173;-69
2024/01/19 00:26:37;;;;;;;1999.90;999.90;;;-1.10;99.90;;;;;;5071251;28;20183;-68
2024/01/19 00:29:03;;;;;;;1999.90;999.90;;;-1.00;99.90;;;;;;5071533;28;20186;-68
2024/01/19 00:31:29;;;;;;;1999.90;999.90;;;-1.10;99.90;;;;;;5071570;28;20670;-70
2024/01/19 00:33:54;;;;;;;1999.90;999.90;;;-1.10;99.90;;;;;;5074924;28;20212;-70
2024/01/19 00:36:20;;;;;;;1999.90;999.90;;;-1.20;99.90;;;;;;5075431;28;20186;-70
2024/01/19 00:38:45;;;;;;;1999.90;999.90;;;-1.20;99.90;;;;;;5075429;28;20187;-69
2024/01/19 00:41:11;;;;;;;1999.90;999.90;;;-1.10;99.90;;;;;;5075409;28;20194;-70
2024/01/19 00:43:37;;;;;;;1999.90;999.90;;;-1.20;99.90;;;;;;5075389;28;20167;-71
2024/01/19 00:46:03;;;;;;;1999.90;999.90;;;-1.30;99.90;;;;;;5075246;28;20409;-71
2024/01/19 00:48:29;;;;;;;1999.90;999.90;;;-1.30;99.90;;;;;;5073911;28;20603;-70
2024/01/19 00:50:54;;;;;;;1999.90;999.90;;;-1.30;99.90;;;;;;5075194;28;20198;-69
2024/01/19 00:53:20;;;;;;;1999.90;999.90;;;-1.30;99.90;;;;;;5075149;28;20171;-69
2024/01/19 00:55:46;;;;;;;1999.90;999.90;;;-1.30;99.90;;;;;;5075078;28;20851;-70
2024/01/19 00:58:11;;;;;;;1999.90;999.90;;;-1.40;99.90;;;;;;5075048;28;20285;-69
2024/01/19 01:00:37;;;;;;;1999.90;999.90;;;-1.30;99.90;;;;;;5075058;28;20178;-70
2024/01/19 01:03:03;;;;;;;1999.90;999.90;;;-1.30;99.90;;;;;;5075141;28;20202;-70
2024/01/19 01:05:29;;;;;;;1999.90;999.90;;;-1.10;99.90;;;;;;5074874;28;20175;-68
2024/01/19 01:07:54;;;;;;;1999.90;999.90;;;;;;;;;;5074747;28;20416;-69
2024/01/19 01:10:20;;;;;;;1999.90;999.90;;;-1.50;99.90;;;;;;5074609;28;20191;-70
2024/01/19 01:12:46;;;;;;;1999.90;999.90;;;-1.20;99.90;;;;;;5074877;28;20631;-69
2024/01/19 01:15:11;;;;;;;1999.90;999.90;;;-1.50;99.90;;;;;;5074647;28;20211;-68
2024/01/19 01:17:37;;;;;;;1999.90;999.90;;;-1.20;99.90;;;;;;5074760;28;20167;-68
2024/01/19 01:20:03;;;;;;;1999.90;999.90;;;-1.30;99.90;;;;;;5074662;28;20187;-68
2024/01/19 01:22:29;;;;;;;1999.90;999.90;;;-1.40;99.90;;;;;;5074666;28;20630;-69
2024/01/19 01:24:55;;;;;;;1999.90;999.90;;;-1.30;99.90;;;;;;5074466;28;20175;-70
2024/01/19 01:27:20;;;;;;;1999.90;999.90;;;-1.30;99.90;;;;;;5074549;28;20171;-70
2024/01/19 01:29:46;;;;;;;1999.90;999.90;;;-1.30;99.90;;;;;;5074424;28;20187;-70
2024/01/19 01:32:12;;;;;;;1999.90;999.90;;;-1.30;99.90;;;;;;5074470;28;20225;-68
2024/01/19 01:34:37;;;;;;;1999.90;999.90;;;-1.40;99.90;;;;;;5074400;28;20164;-68
2024/01/19 01:37:03;;;;;;;1999.90;999.90;;;-1.30;99.90;;;;;;5074354;28;20246;-69
2024/01/19 01:39:29;;;;;;;1999.90;999.90;;;-1.50;99.90;;;;;;5074359;28;20681;-69
2024/01/19 01:41:54;;;;;;;1999.90;999.90;;;-1.30;99.90;;;;;;5074287;28;20168;-68
2024/01/19 01:44:20;;;;;;;1999.90;999.90;;;-1.30;99.90;;;;;;5073971;28;20701;-69
2024/01/19 01:46:45;;;;;;;1999.90;999.90;;;-1.30;99.90;;;;;;5074154;28;20260;-69
2024/01/19 01:49:11;;;;;;;1999.90;999.90;;;-1.20;99.90;;;;;;5074065;28;20772;-69
2024/01/19 01:51:37;;;;;;;1999.90;999.90;;;-1.20;99.90;;;;;;5074042;28;20229;-70
2024/01/19 01:54:04;;;;;;;1999.90;999.90;;;-1.10;99.90;;;;;;5074215;28;20167;-69
2024/01/19 01:56:30;;;;;;;1999.90;999.90;;;-1.00;99.90;;;;;;5073864;28;20654;-69
2024/01/19 01:58:55;;;;;;;1999.90;999.90;;;-1.00;99.90;;;;;;5073986;28;20202;-70
2024/01/19 02:01:21;;;;;;;1999.90;999.90;;;-1.00;99.90;;;;;;5073998;28;20171;-69
2024/01/19 02:03:49;;;;;;;1999.90;999.90;;;-1.10;99.90;;;;;;5073945;28;20225;-70
2024/01/19 02:06:15;;;;;;;1999.90;999.90;;;-1.10;99.90;;;;;;5073633;28;20638;-69
2024/01/19 02:08:40;;;;;;;1999.90;999.90;;;-0.90;99.90;;;;;;5073668;28;20195;-69
2024/01/19 02:11:06;;;;;;;1999.90;999.90;;;-0.90;99.90;;;;;;5073694;28;20202;-68
2024/01/19 02:13:32;;;;;;;1999.90;999.90;;;-1.00;99.90;;;;;;5101041;22;20217;-73
2024/01/19 02:16:00;;;;;;;1999.90;999.90;;;-1.00;99.90;;;;;;5013133;28;20209;-72
2024/01/19 02:18:26;;;;;;;1999.90;999.90;;;-0.90;99.90;;;;;;5013780;28;20165;-74
2024/01/19 02:20:53;;;;;;;1999.90;999.90;;;-1.00;99.90;;;;;;5013931;28;20169;-73
2024/01/19 02:23:21;;;;;;;1999.90;999.90;;;-1.10;99.90;;;;;;5013769;28;20599;-73
2024/01/19 02:25:47;;;;;;;1999.90;999.90;;;-0.80;99.90;;;;;;5013656;28;20181;-73
2024/01/19 02:28:13;;;;;;;1999.90;999.90;;;-0.80;99.90;;;;;;5013915;28;20203;-73
2024/01/19 02:30:40;;;;;;;1999.90;999.90;;;-0.80;99.90;;;;;;5013718;28;20205;-73
2024/01/19 02:33:06;;;;;;;1999.90;999.90;;;;;;;;;;5013629;28;20173;-73
2024/01/19 02:35:32;;;;;;;1999.90;999.90;;;-0.80;99.90;;;;;;5013542;28;20295;-73
2024/01/19 02:37:58;;;;;;;1999.90;999.90;;;-0.60;99.90;;;;;;5014132;28;20644;-74
2024/01/19 02:40:23;;;;;;;1999.90;999.90;;;-0.40;99.90;;;;;;5014272;28;20660;-74
2024/01/19 02:42:49;;;;;;;1999.90;999.90;;;-0.40;99.90;;;;;;5014139;28;20180;-74
2024/01/19 02:45:14;;;;;;;1999.90;999.90;;;-0.50;99.90;;;;;;5014300;28;20697;-74
2024/01/19 02:47:40;;;;;;;1999.90;999.90;;;-0.10;99.90;;;;;;5013404;28;20173;-74
2024/01/19 02:50:06;;;;;;;1999.90;999.90;;;-0.40;99.90;;;;;;5013385;28;20248;-74
2024/01/19 02:52:33;;;;;;;1999.90;999.90;;;-0.50;99.90;;;;;;5013223;28;20205;-73
2024/01/19 02:54:59;;;;;;;1999.90;999.90;;;-0.30;99.90;;;;;;5012234;28;20467;-73
2024/01/19 02:57:25;;;;;;;1999.90;999.90;;;-0.30;99.90;;;;;;5013277;28;20201;-73
2024/01/19 02:59:50;;;;;;;1999.90;999.90;;;-0.20;99.90;;;;;;5013241;28;20172;-73
2024/01/19 03:02:16;;;;;;;1999.90;999.90;;;-0.30;99.90;;;;;;5013154;28;20184;-74
2024/01/19 03:04:41;;;;;;;1999.90;999.90;;;-0.60;99.90;;;;;;5012853;28;20219;-73
2024/01/19 03:07:07;;;;;;;1999.90;999.90;;;-0.10;99.90;;;;;;5013153;28;20571;-73
2024/01/19 03:09:33;;;;;;;1999.90;999.90;;;-0.30;99.90;;;;;;5013274;28;20179;-73
2024/01/19 03:11:58;;;;;;;1999.90;999.90;;;-0.10;99.90;;;;;;5013014;28;20573;-73
2024/01/19 03:14:24;;;;;;;1999.90;999.90;;;-0.10;99.90;;;;;;5012807;28;20211;-73
2024/01/19 03:16:51;;;;;;;1999.90;999.90;;;-0.20;99.90;;;;;;5014110;28;20165;-74
2024/01/19 03:19:17;;;;;;;1999.90;999.90;;;-0.20;99.90;;;;;;5014067;28;20166;-73
2024/01/19 03:21:42;;;;;;;1999.90;999.90;;;-0.10;99.90;;;;;;5014044;28;20280;-72
2024/01/19 03:24:08;;;;;;;1999.90;999.90;;;-0.10;99.90;;;;;;5014180;28;20224;-73
2024/01/19 03:26:33;;;;;;;1999.90;999.90;;;-0.40;99.90;;;;;;5013920;28;20169;-74
2024/01/19 03:28:59;;;;;;;1999.90;999.90;;;0.00;99.90;;;;;;5014346;28;20169;-73
2024/01/19 03:31:25;;;;;;;1999.90;999.90;;;-0.10;99.90;;;;;;5013996;28;20228;-72
2024/01/19 03:33:50;;;;;;;1999.90;999.90;;;-0.10;99.90;;;;;;5014131;28;20199;-72
2024/01/19 03:36:16;;;;;;;1999.90;999.90;;;-0.10;99.90;;;;;;5014175;28;20192;-74
2024/01/19 03:38:42;;;;;;;1999.90;999.90;;;0.00;99.90;;;;;;5013877;28;20249;-73
2024/01/19 03:41:07;;;;;;;1999.90;999.90;;;0.00;99.90;;;;;;5012536;28;20191;-74
2024/01/19 03:43:33;;;;;;;1999.90;999.90;;;0.00;99.90;;;;;;5012451;28;20196;-74
2024/01/19 03:45:59;;;;;;;1999.90;999.90;;;0.20;99.90;;;;;;5012282;28;20644;-74
2024/01/19 03:48:24;;;;;;;1999.90;999.90;;;0.20;99.90;;;;;;5012427;28;20169;-74
2024/01/19 03:50:50;;;;;;;1999.90;999.90;;;1.20;99.90;;;;;;5012265;28;20242;-73
2024/01/19 03:53:16;;;;;;;1999.90;999.90;;;;;;;;;;5013543;28;20177;-73
2024/01/19 03:55:41;;;;;;;1999.90;999.90;;;0.00;99.90;;;;;;5012628;28;20164;-73
2024/01/19 03:58:07;;;;;;;1999.90;999.90;;;0.30;99.90;;;;;;5012328;28;20479;-73
2024/01/19 04:00:32;;;;;;;1999.90;999.90;;;0.30;99.90;;;;;;5012307;28;20519;-73
2024/01/19 04:02:58;;;;;;;1999.90;999.90;;;0.40;99.90;;;;;;5012648;28;20643;-73
2024/01/19 04:05:23;;;;;;;1999.90;999.90;;;0.40;99.90;;;;;;5012273;28;20553;-73
2024/01/19 04:07:49;;;;;;;1999.90;999.90;;;0.30;99.90;;;;;;5012245;28;20161;-73
2024/01/19 04:10:15;;;;;;;1999.90;999.90;;;0.20;99.90;;;;;;5012706;28;20161;-73
2024/01/19 04:12:40;;;;;;;1999.90;999.90;;;0.30;99.90;;;;;;5012237;28;20192;-73
2024/01/19 04:15:06;;;;;;;1999.90;999.90;;;0.20;99.90;;;;;;5012257;28;20197;-73
2024/01/19 04:17:32;;;;;;;1999.90;999.90;;;0.20;99.90;;;;;;5012152;28;20562;-73
2024/01/19 04:19:58;;;;;;;1999.90;999.90;;;0.40;99.90;;;;;;5012185;28;20173;-73
2024/01/19 04:22:25;;;;;;;1999.90;999.90;;;0.40;99.90;;;;;;5012134;28;20168;-73
2024/01/19 04:24:51;;;;;;;1999.90;999.90;;;0.50;99.90;;;;;;5011828;28;20200;-74
2024/01/19 04:27:16;;;;;;;1999.90;999.90;;;0.20;99.90;;;;;;5012000;28;20173;-73
2024/01/19 04:29:42;;;;;;;1999.90;999.90;;;0.40;99.90;;;;;;5012057;28;20177;-73
2024/01/19 04:32:07;;;;;;;1999.90;999.90;;;0.40;99.90;;;;;;5012160;28;20688;-72
2024/01/19 04:34:33;;;;;;;1999.90;999.90;;;0.60;99.90;;;;;;5013351;28;20204;-73
2024/01/19 04:36:59;;;;;;;1999.90;999.90;;;0.50;99.90;;;;;;5013206;28;20180;-73
2024/01/19 04:39:25;;;;;;;1999.90;999.90;;;0.40;99.90;;;;;;5013767;28;20531;-73
2024/01/19 04:41:50;;;;;;;1999.90;999.90;;;0.40;99.90;;;;;;5013185;28;20176;-73
2024/01/19 04:44:16;;;;;;;1999.90;999.90;;;0.40;99.90;;;;;;5012027;28;20193;-72
2024/01/19 04:46:41;;;;;;;1999.90;999.90;;;0.10;99.90;;;;;;5011661;28;20204;-72
2024/01/19 04:49:07;;;;;;;1999.90;999.90;;;0.40;99.90;;;;;;5011709;28;20644;-72
2024/01/19 04:51:33;;;;;;;1999.90;999.90;;;0.30;99.90;;;;;;5011717;28;20239;-72
2024/01/19 04:53:59;;;;;;;1999.90;999.90;;;0.40;99.90;;;;;;5011628;28;20193;-72
2024/01/19 04:56:25;;;;;;;1999.90;999.90;;;0.30;99.90;;;;;;5011512;28;20177;-73
2024/01/19 04:58:50;;;;;;;1999.90;999.90;;;0.60;99.90;;;;;;5011724;28;20442;-73
2024/01/19 05:01:17;;;;;;;1999.90;999.90;;;0.40;99.90;;;;;;5011703;28;20192;-72
2024/01/19 05:03:43;;;;;;;1999.90;999.90;;;0.50;99.90;;;;;;5011493;28;20196;-72
2024/01/19 05:06:11;;;;;;;1999.90;999.90;;;0.40;99.90;;;;;;5011365;28;20173;-73
2024/01/19 05:08:36;;;;;;;1999.90;999.90;;;0.40;99.90;;;;;;5011671;28;20793;-72
2024/01/19 05:11:03;;;;;;;1999.90;999.90;;;0.20;99.90;;;;;;5011540;28;20258;-72
2024/01/19 05:13:28;;;;;;;1999.90;999.90;;;0.40;99.90;;;;;;5011534;28;20578;-72
2024/01/19 05:15:54;;;;;;;1999.90;999.90;;;0.20;99.90;;;;;;5011427;28;20177;-72
2024/01/19 05:18:21;;;;;;;1999.90;999.90;;;0.10;99.90;;;;;;5012186;28;20756;-72
2024/01/19 05:20:46;;;;;;;1999.90;999.90;;;0.40;99.90;;;;;;5015168;28;20162;-72
2024/01/19 05:23:12;;;;;;;1999.90;999.90;;;;;;;;;;5015010;28;20700;-72
2024/01/19 05:25:38;;;;;;;1999.90;999.90;;;0.10;99.90;;;;;;5014858;28;20184;-72
2024/01/19 05:28:03;;;;;;;1999.90;999.90;;;0.30;99.90;;;;;;5014968;28;20260;-72
2024/01/19 05:30:29;;;;;;;1999.90;999.90;;;0.30;99.90;;;;;;5014869;28;20199;-73
2024/01/19 05:32:55;;;;;;;1999.90;999.90;;;0.20;99.90;;;;;;5014788;28;20173;-73
2024/01/19 05:35:21;;;;;;;1999.90;999.90;;;0.10;99.90;;;;;;5014625;28;20181;-73
2024/01/19 05:37:46;;;;;;;1999.90;999.90;;;-0.10;99.90;;;;;;5015451;28;20185;-73
2024/01/19 05:40:12;;;;;;;1999.90;999.90;;;0.00;99.90;;;;;;5015174;28;20188;-73
2024/01/19 05:42:37;;;;;;;1999.90;999.90;;;0.00;99.90;;;;;;5015144;28;20264;-73
2024/01/19 05:45:03;;;;;;;1999.90;999.90;;;0.20;99.90;;;;;;5014696;28;20189;-73
2024/01/19 05:47:29;;;;;;;1999.90;999.90;;;-0.10;99.90;;;;;;5014497;28;20219;-73
2024/01/19 05:49:55;;;;;;;1999.90;999.90;;;-0.10;99.90;;;;;;5014531;28;20659;-73
2024/01/19 05:52:20;;;;;;;1999.90;999.90;;;1.50;99.90;;;;;;5014495;28;20590;-73
2024/01/19 05:54:46;;;;;;;1999.90;999.90;;;-0.10;99.90;;;;;;5014219;28;20320;-73
2024/01/19 05:57:11;;;;;;;1999.90;999.90;;;0.10;99.90;;;;;;5014344;28;20173;-73
2024/01/19 05:59:40;;;;;;;1999.90;999.90;;;0.10;99.90;;;;;;5014365;28;20251;-73
2024/01/19 06:02:06;;;;;;;1999.90;999.90;;;0.10;99.90;;;;;;5014281;28;20708;-72
2024/01/19 06:04:37;;;;;;;1999.90;999.90;;;0.00;99.90;;;;;;5014017;28;20299;-72
2024/01/19 06:07:03;;;;;;;1999.90;999.90;;;0.10;99.90;;;;;;5014394;28;20250;-72
2024/01/19 06:09:29;;;;;;;1999.90;999.90;;;0.00;99.90;;;;;;5014176;28;20188;-72
2024/01/19 06:11:55;;;;;;;1999.90;999.90;;;0.20;99.90;;;;;;5014204;28;20332;-72
2024/01/19 06:14:20;;;;;;;1999.90;999.90;;;0.20;99.90;;;;;;5013838;28;20240;-72
2024/01/19 06:16:46;;;;;;;1999.90;999.90;;;0.10;99.90;;;;;;5013415;28;20707;-72
2024/01/19 06:19:11;;;;;;;1999.90;999.90;;;0.10;99.90;;;;;;5012829;28;20177;-72
2024/01/19 06:21:37;;;;;;;1999.90;999.90;;;0.10;99.90;;;;;;5013746;28;20173;-72
2024/01/19 06:24:03;;;;;;;1999.90;999.90;;;-0.80;94.70;;;;;;5013841;28;20200;-73
2024/01/19 06:26:32;;;;;;;1999.90;999.90;;;0.30;90.60;;;;;;5013670;28;20172;-72
2024/01/19 06:28:58;;;;;;;1999.90;999.90;;;0.10;93.90;;;;;;5013948;28;20671;-73
2024/01/19 06:31:24;;;;;;;1999.90;999.90;;;0.20;84.80;;;;;;5013741;28;20251;-73
2024/01/19 06:33:49;;;;;;;1999.90;999.90;;;-0.10;82.90;;;;;;5013640;28;20193;-73
2024/01/19 06:36:15;;;;;;;1999.90;999.90;;;-0.10;85.30;;;;;;5013450;28;20165;-72
2024/01/19 06:38:41;;;;;;;1999.90;999.90;;;0.00;82.80;;;;;;5013769;28;20176;-71
2024/01/19 06:41:06;;;;;;;1999.90;999.90;;;0.10;77.70;;;;;;5013657;28;20168;-72
2024/01/19 06:43:32;;;;;;;1999.90;999.90;;;0.00;84.70;;;;;;5013419;28;20215;-71
2024/01/19 06:45:58;;;;;;;1999.90;999.90;;;-0.10;85.00;;;;;;5013173;28;20404;-71
2024/01/19 06:48:23;;;;;;;1999.90;999.90;;;0.00;65.40;;;;;;5013489;28;20173;-72
2024/01/19 06:50:49;;;;;;;1999.90;999.90;;;0.10;49.40;;;;;;5013381;28;20193;-71
2024/01/19 06:53:15;;;;;;;1999.90;999.90;;;;;;;;;;5013309;28;20179;-72
2024/01/19 06:55:41;;;;;;;1999.90;999.90;;;-0.10;63.70;;;;;;5013042;28;20169;-71
2024/01/19 06:58:06;;;;;;;1999.90;999.90;;;0.00;57.30;;;;;;5013212;28;20169;-71
2024/01/19 07:00:32;;;;;;;1999.90;999.90;;;-0.10;27.50;;;;;;5013212;28;20165;-71
2024/01/19 07:02:59;;;;;;;1999.90;999.90;;;0.00;25.10;;;;;;5013129;28;20169;-71
2024/01/19 07:05:25;;;;;;;1999.90;999.90;;;-0.10;20.80;;;;;;5013072;28;20205;-71
2024/01/19 07:07:51;;;;;;;1999.90;999.90;;;-0.20;26.80;;;;;;5013106;28;20703;-71
2024/01/19 07:10:16;;;;;;;1999.90;999.90;;;0.00;39.30;;;;;;5012991;28;20415;-72
2024/01/19 07:12:42;;;;;;;1999.90;999.90;;;-0.10;28.40;;;;;;5012963;28;20574;-72
2024/01/19 07:15:08;;;;;;;1999.90;999.90;;;-0.10;22.90;;;;;;5012480;28;20215;-73
2024/01/19 07:17:34;;;;;;;1999.90;999.90;;;-0.20;12.10;;;;;;5012929;28;20396;-73
2024/01/19 07:20:00;;;;;;;1999.90;999.90;;;-0.20;14.50;;;;;;5012916;28;20165;-73
2024/01/19 07:22:27;;;;;;;1999.90;999.90;;;-0.20;27.90;;;;;;5011752;28;20640;-73
2024/01/19 07:24:53;;;;;;;1999.90;999.90;;;-0.10;44.90;;;;;;5012584;28;20229;-71
2024/01/19 07:27:18;;;;;;;1999.90;999.90;;;0.00;30.10;;;;;;5012756;28;20181;-71
2024/01/19 07:29:44;;;;;;;1999.90;999.90;;;0.00;26.40;;;;;;5012846;28;20177;-71
2024/01/19 07:32:09;;;;;;;1999.90;999.90;;;0.00;17.40;;;;;;5012796;28;20200;-71
2024/01/19 07:34:35;;;;;;;1999.90;999.90;;;0.00;1.00;;;;;;5012405;28;20579;-72
2024/01/19 07:37:01;;;;;;;1999.90;999.90;;;-0.20;1.00;;;;;;5012623;28;20200;-72
2024/01/19 07:39:26;;;;;;;1999.90;999.90;;;-0.30;1.00;;;;;;5012673;28;20200;-73
2024/01/19 07:41:52;;;;;;;1999.90;999.90;;;-0.20;1.00;;;;;;5012229;28;20937;-73
2024/01/19 07:44:19;;;;;;;1999.90;999.90;;;-0.20;1.00;;;;;;5012330;28;20529;-72
2024/01/19 07:46:44;;;;;;;1999.90;999.90;;;-0.50;1.00;;;;;;5012470;28;20256;-72
2024/01/19 07:49:11;;;;;;;1999.90;999.90;;;-0.50;1.00;;;;;;5012632;28;20208;-71
2024/01/19 07:51:37;;;;;;;1999.90;999.90;;;0.00;1.00;;;;;;5012523;28;20287;-71
2024/01/19 07:54:03;;;;;;;1999.90;999.90;;;-0.10;5.80;;;;;;5012327;28;20195;-71
2024/01/19 07:56:28;;;;;;;1999.90;999.90;;;0.10;1.00;;;;;;5012167;28;20174;-71
2024/01/19 07:58:54;;;;;;;1999.90;999.90;;;0.00;1.00;;;;;;5012205;28;20396;-71
2024/01/19 08:01:20;;;;;;;1999.90;999.90;;;-0.10;1.00;;;;;;5012251;28;20165;-71
2024/01/19 08:03:45;;;;;;;1999.90;999.90;;;-0.10;1.00;;;;;;5012271;28;20189;-71
2024/01/19 08:06:11;;;;;;;1999.90;999.90;;;-0.10;1.00;;;;;;5011989;28;20204;-72
2024/01/19 08:08:36;;;;;;;1999.90;999.90;;;-0.10;1.00;;;;;;5012264;28;20173;-72
2024/01/19 08:11:02;;;;;;;1999.90;999.90;;;0.10;1.00;;;;;;5012132;28;20188;-71
2024/01/19 08:13:28;;;;;;;1999.90;999.90;;;0.20;1.00;;;;;;5011846;28;20201;-71
2024/01/19 08:15:53;;;;;;;1999.90;999.90;;;0.20;1.00;;;;;;5027329;23;20263;-70
2024/01/19 08:18:19;;;;;;;1999.90;999.90;;;0.20;1.00;;;;;;5012467;28;20169;-70
2024/01/19 08:20:44;;;;;;;1999.90;999.90;;;0.30;1.00;;;;;;5012384;28;20644;-70
2024/01/19 08:23:10;;;;;;;1999.90;999.90;;;0.10;1.00;;;;;;5012386;28;20170;-69
2024/01/19 08:25:35;;;;;;;1999.90;999.90;;;0.10;1.00;;;;;;5010776;28;20189;-70
2024/01/19 08:28:02;;;;;;;1999.90;999.90;;;0.20;1.00;;;;;;5012173;28;20169;-69
2024/01/19 08:30:27;;;;;;;1999.90;999.90;;;0.00;1.00;;;;;;5012275;28;20266;-68
2024/01/19 08:32:53;;;;;;;1999.90;999.90;;;0.30;1.00;;;;;;5012150;28;20236;-68
2024/01/19 08:35:18;;;;;;;1999.90;999.90;;;0.30;1.00;;;;;;5011827;28;20196;-69
2024/01/19 08:37:44;;;;;;;1999.90;999.90;;;0.30;1.00;;;;;;5012263;28;20169;-68
2024/01/19 08:40:11;;;;;;;1999.90;999.90;;;0.40;1.00;;;;;;5012146;28;20220;-68
2024/01/19 08:42:38;;;;;;;1999.90;999.90;;;0.20;1.00;;;;;;5012017;28;20169;-69
2024/01/19 08:45:04;;;;;;;1999.90;999.90;;;0.40;99.90;;;;;;5011604;28;20193;-68
2024/01/19 08:47:30;;;;;;;1999.90;999.90;;;0.20;99.90;;;;;;5011958;28;20169;-68
2024/01/19 08:49:55;;;;;;;1999.90;999.90;;;0.40;99.90;;;;;;5011973;28;20280;-68
2024/01/19 08:52:21;;;;;;;1999.90;999.90;;;0.30;99.90;;;;;;5011745;28;20439;-68
2024/01/19 08:54:46;;;;;;;1999.90;999.90;;;0.40;99.90;;;;;;5014653;28;20275;-68
2024/01/19 08:57:12;;;;;;;1999.90;999.90;;;0.40;99.90;;;;;;5015562;28;20225;-69
2024/01/19 08:59:38;;;;;;;1999.90;999.90;;;0.30;99.90;;;;;;5015692;28;20235;-69
2024/01/19 09:02:04;;;;;;;1999.90;999.90;;;0.50;99.90;;;;;;5015567;28;20165;-68
2024/01/19 09:04:30;;;;;;;1999.90;999.90;;;0.60;99.90;;;;;;5015505;28;20745;-68
2024/01/19 09:06:55;;;;;;;1999.90;999.90;;;0.60;90.40;;;;;;5015568;28;20165;-68
2024/01/19 09:09:22;;;;;;;1999.90;999.90;;;0.70;1.60;;;;;;5015427;28;20226;-69
2024/01/19 09:11:48;;;;;;;1999.90;999.90;;;0.70;1.00;;;;;;5015152;28;20182;-67
2024/01/19 09:14:13;;;;;;;1999.90;999.90;;;0.70;1.00;;;;;;5015023;28;20205;-67
2024/01/19 09:16:43;;;;;;;1999.90;999.90;;;0.80;99.90;;;;;;5015241;28;20507;-67
2024/01/19 09:19:09;;;;;;;1999.90;999.90;;;0.80;99.90;;;;;;5015111;28;20459;-67
2024/01/19 09:21:34;;;;;;;1999.90;999.90;;;0.90;99.90;;;;;;5015148;28;20177;-67
2024/01/19 09:24:00;;;;;;;1999.90;999.90;;;;;;;;;;5014929;28;20434;-69
2024/01/19 09:26:26;;;;;;;1999.90;999.90;;;0.70;99.90;;;;;;5009336;28;20190;-69
2024/01/19 09:28:51;;;;;;;1999.90;999.90;;;0.90;1.00;;;;;;5015138;28;20439;-70
2024/01/19 09:31:17;;;;;;;1999.90;999.90;;;1.00;1.00;;;;;;5014677;28;20279;-69
2024/01/19 09:33:44;;;;;;;1999.90;999.90;;;;;;;;;;5014419;28;20169;-68
2024/01/19 09:36:10;;;;;;;1999.90;999.90;;;0.80;1.00;;;;;;5014181;28;20521;-71
2024/01/19 09:38:37;;;;;;;1999.90;999.90;;;0.80;1.00;;;;;;5015811;28;20188;-69
2024/01/19 09:41:27;;;;;;;1999.90;999.90;;;1.50;1.00;;;;;;5031692;28;20180;-70
2024/01/19 09:43:57;;;;;;;1999.90;999.90;;;0.80;1.00;;;;;;5023081;28;20677;-68
2024/01/19 09:46:28;;;;;;;1999.90;999.90;;;1.00;1.00;;;;;;5013476;28;20208;-68
2024/01/19 09:49:10;;;;;;;1999.90;999.90;;;1.20;1.00;;;;;;5013562;28;20208;-67
2024/01/19 09:52:02;;;;;;;1999.90;999.90;;;1.00;99.90;;;;;;5014319;28;20232;-68
2024/01/19 09:54:33;;;;;;;1999.90;999.90;;;1.00;1.00;;;;;;5013429;28;20299;-68
2024/01/19 09:57:03;;;;;;;1999.90;999.90;;;1.10;99.90;;;;;;5013884;28;20179;-68
2024/01/19 09:59:32;;;;;;;1999.90;999.90;;;1.10;99.90;;;;;;5014087;28;20203;-68
2024/01/19 10:01:59;;;;;;;1999.90;999.90;;;1.10;99.90;;;;;;5013437;28;20516;-68
2024/01/19 10:04:26;;;;;;;1999.90;999.90;;;1.30;99.90;;;;;;5013789;28;20212;-68
2024/01/19 10:06:53;;;;;;;1999.90;999.90;;;1.50;1.00;;;;;;5013288;28;20184;-69
2024/01/19 10:09:20;;;;;;;1999.90;999.90;;;3.10;1.00;;;;;;5013383;28;20651;-68
2024/01/19 10:11:49;;;;;;;1999.90;999.90;;;1.90;1.00;;;;;;5013718;28;20276;-68
2024/01/19 10:14:15;;;;;;;1999.90;999.90;;;2.00;99.90;;;;;;5013469;28;20200;-69
2024/01/19 10:16:42;;;;;;;1999.90;999.90;;;2.10;1.00;;;;;;5012182;28;20173;-68
2024/01/19 10:19:09;;;;;;;1999.90;999.90;;;2.30;99.90;;;;;;5013498;28;20499;-68
2024/01/19 10:21:35;;;;;;;1999.90;999.90;;;4.30;98.30;;;;;;5013688;28;20205;-69
2024/01/19 10:24:20;;;;;;;1999.90;999.90;;;1.90;99.90;;;;;;5013053;28;20200;-68
2024/01/19 10:26:54;;;;;;;1999.90;999.90;;;2.10;99.90;;;;;;5012765;28;20184;-67
2024/01/19 10:29:20;;;;;;;1999.90;999.90;;;2.00;1.00;;;;;;5013554;28;20521;-67
2024/01/19 10:31:52;;;;;;;1999.90;999.90;;;1.90;1.00;;;;;;5013253;28;20227;-68
2024/01/19 10:34:22;;;;;;;1999.90;999.90;;;1.80;1.00;;;;;;5013392;28;20201;-68
2024/01/19 10:36:50;;;;;;;1999.90;999.90;;;2.00;1.00;;;;;;5012746;28;20260;-69
2024/01/19 10:39:23;;;;;;;1999.90;999.90;;;1.90;99.90;;;;;;5012703;28;20256;-69
2024/01/19 10:41:51;;;;;;;1999.90;999.90;;;2.10;99.90;;;;;;5013359;28;20652;-69
2024/01/19 10:44:20;;;;;;;1999.90;999.90;;;4.40;1.00;;;;;;5013141;28;20656;-69
2024/01/19 10:46:46;;;;;;;1999.90;999.90;;;3.40;1.00;;;;;;5012018;28;20215;-69
2024/01/19 10:49:16;;;;;;;1999.90;999.90;;;2.50;60.30;;;;;;5012859;28;20181;-66
2024/01/19 10:51:44;;;;;;;1999.90;999.90;;;2.60;99.90;;;;;;5012903;28;20231;-67
2024/01/19 10:54:16;;;;;;;1999.90;999.90;;;2.60;1.00;;;;;;5012433;28;20189;-67
2024/01/19 10:56:45;;;;;;;1999.90;999.90;;;2.70;1.00;;;;;;5012360;28;20659;-68
2024/01/19 10:59:13;;;;;;;1999.90;999.90;;;2.80;1.00;;;;;;5012805;28;20177;-70
2024/01/19 11:01:39;;;;;;;1999.90;999.90;;;3.10;1.00;;;;;;5012171;28;20258;-68
2024/01/19 11:04:10;;;;;;;1999.90;999.90;;;3.30;99.90;;;;;;5010926;28;20239;-71
2024/01/19 11:06:36;;;;;;;1999.90;999.90;;;4.10;99.90;;;;;;5011911;28;20203;-68
2024/01/19 11:09:05;;;;;;;1999.90;999.90;;;3.40;99.90;;;;;;5012088;28;20177;-68
2024/01/19 11:11:35;;;;;;;1999.90;999.90;;;3.40;99.90;;;;;;5025730;28;20582;-70
2024/01/19 11:14:02;;;;;;;1999.90;999.90;;;3.40;99.90;;;;;;5031230;28;20203;-68
2024/01/19 11:16:31;;;;;;;1999.90;999.90;;;3.10;99.90;;;;;;5010850;28;20196;-68
2024/01/19 11:18:57;;;;;;;1999.90;999.90;;;3.20;99.90;;;;;;5012330;28;20260;-71
2024/01/19 11:21:24;;;;;;;1999.90;999.90;;;3.20;99.90;;;;;;5012560;28;20211;-67
2024/01/19 11:23:50;;;;;;;1999.90;999.90;;;;;;;;;;5019230;28;20196;-68
2024/01/19 11:26:36;;;;;;;1999.90;999.90;;;3.10;99.90;;;;;;5021639;28;20181;-70
2024/01/19 11:29:12;;;;;;;1999.90;999.90;;;4.00;99.90;;;;;;5013450;28;20543;-69
2024/01/19 11:31:39;;;;;;;1999.90;999.90;;;3.10;99.90;;;;;;5031634;28;20203;-69
2024/01/19 11:34:05;;;;;;;1999.90;999.90;;;3.60;1.00;;;;;;5031525;28;20219;-70
2024/01/19 11:36:40;;;;;;;1999.90;999.90;;;4.10;99.90;;;;;;5031336;28;20180;-70
2024/01/19 11:39:13;;;;;;;1999.90;999.90;;;4.80;99.90;;;;;;5031122;28;20439;-70
2024/01/19 11:41:40;;;;;;;1999.90;999.90;;;6.40;1.00;;;;;;5031735;28;20411;-70
2024/01/19 11:44:12;;;;;;;1999.90;999.90;;;7.00;99.90;;;;;;5031442;28;20508;-70
2024/01/19 11:46:44;;;;;;;1999.90;999.90;;;6.70;99.90;;;;;;5030769;28;20489;-70
2024/01/19 11:49:29;;;;;;;1999.90;999.90;;;7.30;99.90;;;;;;5031700;28;20419;-71
2024/01/19 11:51:56;;;;;;;1999.90;999.90;;;7.90;98.50;;;;;;5031733;28;20958;-71
2024/01/19 11:54:29;;;;;;;1999.90;999.90;;;8.20;48.10;;;;;;5019764;28;20435;-71
2024/01/19 11:57:16;;;;;;;1999.90;999.90;;;8.30;26.70;;;;;;5011058;28;20415;-71
2024/01/19 11:59:45;;;;;;;1999.90;999.90;;;7.70;1.00;;;;;;5012022;28;20424;-71
2024/01/19 12:02:30;;;;;;;1999.90;999.90;;;8.90;1.00;;;;;;5011328;28;20421;-71
2024/01/19 12:04:59;;;;;;;1999.90;999.90;;;8.00;1.00;;;;;;5011097;28;20439;-72
2024/01/19 12:07:25;;;;;;;1999.90;999.90;;;9.10;1.00;;;;;;5011588;28;20511;-72